Time;durP1;ratioP1;P1;durP2;ratioP2;P2;SDS_P1;SDS_P2;PMS_P1;PMS_P2;Temp;Humidity;BMP_temperature;BMP_pressure;BME280_temperature;BME280_humidity;BME280_pressure;Samples;Min_cycle;Max_cycle;Signal;HPM_P1;HPM_P2
2022/11/24 00:01:28;;;;;;;23.75;7.15;;;;;;;8.15;100.00;100108.09;10568594;28;20028;-71
2022/11/24 00:06:29;;;;;;;9.80;3.35;;;;;;;8.04;100.00;100120.28;10586076;28;20047;-70
2022/11/24 00:11:31;;;;;;;21.15;4.85;;;;;;;7.99;100.00;100093.09;10585010;28;20421;-70
2022/11/24 00:16:33;;;;;;;22.45;4.93;;;;;;;8.03;100.00;100112.38;10587532;28;20040;-71
2022/11/24 00:21:33;;;;;;;7.82;4.32;;;;;;;8.02;100.00;100114.25;10587403;28;20027;-72
2022/11/24 00:26:36;;;;;;;15.15;5.50;;;;;;;8.03;100.00;100117.78;10584968;28;20528;-71
2022/11/24 00:31:38;;;;;;;24.08;5.00;;;;;;;7.87;100.00;100118.94;10567302;28;20481;-70
2022/11/24 00:36:38;;;;;;;10.05;3.28;;;;;;;7.79;100.00;100132.59;10584436;28;20034;-71
2022/11/24 00:41:39;;;;;;;19.98;4.60;;;;;;;7.71;100.00;100130.88;10585465;28;20024;-71
2022/11/24 00:46:39;;;;;;;6.75;2.92;;;;;;;7.71;100.00;100132.75;10550800;28;20126;-71
2022/11/24 00:51:40;;;;;;;18.50;5.22;;;;;;;7.74;100.00;100135.88;10585096;28;20031;-71
2022/11/24 00:56:40;;;;;;;15.98;4.75;;;;;;;7.80;100.00;100145.84;10584885;28;20172;-71
2022/11/24 01:01:41;;;;;;;18.40;4.90;;;;;;;7.77;100.00;100143.56;10585851;28;20088;-71
2022/11/24 01:06:41;;;;;;;11.55;4.07;;;;;;;7.74;100.00;100137.72;10566696;28;20193;-71
2022/11/24 01:12:00;;;;;;;20.60;5.18;;;;;;;7.64;100.00;100140.78;10583227;28;20046;-71
2022/11/24 01:17:00;;;;;;;19.45;5.80;;;;;;;7.70;100.00;100158.84;10567716;28;20038;-71
2022/11/24 01:22:01;;;;;;;11.75;5.50;;;;;;;7.72;100.00;100156.78;10584493;28;20114;-70
2022/11/24 01:27:01;;;;;;;19.95;5.22;;;;;;;7.78;100.00;100155.16;10584060;28;20160;-70
2022/11/24 01:32:02;;;;;;;14.13;3.80;;;;;;;7.83;100.00;100160.81;10582918;28;20462;-70
2022/11/24 01:37:02;;;;;;;17.83;4.40;;;;;;;7.74;100.00;100176.28;10581819;28;20031;-70
2022/11/24 01:42:03;;;;;;;14.15;3.28;;;;;;;7.75;100.00;100172.56;10582803;28;20035;-70
2022/11/24 01:47:35;;;;;;;27.20;7.07;;;;;;;7.78;100.00;100196.41;10583695;28;20144;-70
2022/11/24 01:52:37;;;;;;;7.85;3.40;;;;;;;7.76;100.00;100197.66;10567553;28;20038;-70
2022/11/24 01:57:43;;;;;;;15.65;4.47;;;;;;;7.70;100.00;100199.28;10582594;28;20034;-70
2022/11/24 02:02:43;;;;;;;13.00;4.72;;;;;;;7.72;100.00;100205.28;10564332;28;20474;-70
2022/11/24 02:07:44;;;;;;;10.82;4.75;;;;;;;7.69;100.00;100211.09;10581601;28;20090;-69
2022/11/24 02:12:46;;;;;;;11.75;4.15;;;;;;;7.64;100.00;100206.28;10582149;28;20547;-70
2022/11/24 02:17:46;;;;;;;20.73;4.90;;;;;;;7.65;100.00;100218.72;10548389;28;20103;-70
2022/11/24 02:23:01;;;;;;;13.73;4.05;;;;;;;7.60;100.00;100223.88;10587500;28;20031;-70
2022/11/24 02:28:03;;;;;;;9.45;3.92;;;;;;;7.64;100.00;100229.69;10592048;28;20519;-69
2022/11/24 02:33:03;;;;;;;13.80;3.13;;;;;;;7.60;100.00;100223.88;10573723;28;20341;-69
2022/11/24 02:38:04;;;;;;;2.88;1.58;;;;;;;7.63;100.00;100220.78;10590345;28;20027;-69
2022/11/24 02:43:10;;;;;;;6.40;1.58;;;;;;;7.68;100.00;100222.88;10589076;28;20117;-69
2022/11/24 02:48:13;;;;;;;5.65;1.92;;;;;;;7.75;100.00;100228.31;10590782;28;20042;-69
2022/11/24 02:53:13;;;;;;;9.07;2.30;;;;;;;7.83;100.00;100230.88;10572298;28;20035;-69
2022/11/24 02:58:14;;;;;;;2.33;1.80;;;;;;;7.87;100.00;100229.47;10589697;28;20024;-69
2022/11/24 03:03:15;;;;;;;2.92;1.80;;;;;;;7.96;100.00;100235.53;10589522;28;20118;-69
2022/11/24 03:08:15;;;;;;;3.25;1.63;;;;;;;7.93;100.00;100232.19;10553476;28;20054;-69
2022/11/24 03:13:16;;;;;;;5.47;2.42;;;;;;;7.94;100.00;100260.00;10571522;28;20391;-69
2022/11/24 03:18:16;;;;;;;10.95;3.05;;;;;;;7.99;100.00;100262.94;10588911;28;20031;-69
2022/11/24 03:23:16;;;;;;;7.78;2.78;;;;;;;7.97;100.00;100270.38;10569977;28;20031;-69
2022/11/24 03:28:17;;;;;;;11.65;2.50;;;;;;;7.94;100.00;100273.47;10588060;28;20040;-69
2022/11/24 03:33:17;;;;;;;6.38;3.15;;;;;;;7.96;100.00;100292.16;10569043;28;20035;-69
2022/11/24 03:38:18;;;;;;;18.35;4.55;;;;;;;8.01;100.00;100297.78;10587285;28;20118;-69
2022/11/24 03:43:18;;;;;;;9.55;4.10;;;;;;;8.05;100.00;100296.38;10587908;28;20059;-69
2022/11/24 03:48:21;;;;;;;29.70;4.80;;;;;;;8.02;100.00;100319.16;10588439;28;20041;-69
2022/11/24 03:53:22;;;;;;;6.53;3.25;;;;;;;7.97;100.00;100318.91;10587393;28;20127;-69
2022/11/24 03:58:23;;;;;;;12.35;3.75;;;;;;;7.76;100.00;100327.88;10569411;28;20118;-72
2022/11/24 04:03:23;;;;;;;6.78;2.05;;;;;;;7.66;100.00;100330.88;10587313;28;20061;-73
2022/11/24 04:08:23;;;;;;;7.43;3.10;;;;;;;7.50;100.00;100362.63;10568711;28;20543;-73
2022/11/24 04:13:24;;;;;;;2.63;2.00;;;;;;;7.25;100.00;100370.22;10586246;28;20126;-73
2022/11/24 04:18:24;;;;;;;3.03;1.42;;;;;;;6.95;100.00;100372.94;10551389;28;20059;-73
2022/11/24 04:23:26;;;;;;;6.35;0.80;;;;;;;6.83;100.00;100388.75;10585873;28;20036;-73
2022/11/24 04:28:27;;;;;;;1.33;1.20;;;;;;;6.80;100.00;100399.03;10586055;28;20038;-73
2022/11/24 04:33:27;;;;;;;6.75;2.17;;;;;;;6.74;100.00;100390.69;10585483;28;20054;-73
2022/11/24 04:38:27;;;;;;;3.47;1.83;;;;;;;6.75;100.00;100403.09;10585634;28;20027;-73
2022/11/24 04:43:28;;;;;;;1.30;0.95;;;;;;;6.74;100.00;100401.44;10585634;28;20047;-73
2022/11/24 04:48:29;;;;;;;6.15;1.17;;;;;;;6.76;100.00;100409.31;10585610;28;20038;-73
2022/11/24 04:53:29;;;;;;;1.30;1.20;;;;;;;6.77;100.00;100415.56;10566403;28;20047;-73
2022/11/24 04:58:30;;;;;;;3.05;0.90;;;;;;;6.72;100.00;100421.47;10567337;28;20035;-73
2022/11/24 05:03:30;;;;;;;2.40;1.52;;;;;;;6.71;100.00;100428.72;10566520;28;20039;-73
2022/11/24 05:08:30;;;;;;;1.83;1.13;;;;;;;6.73;100.00;100434.75;10549034;28;20055;-73
2022/11/24 05:13:31;;;;;;;7.18;2.00;;;;;;;6.71;100.00;100447.56;10584389;28;20607;-72
2022/11/24 05:18:31;;;;;;;12.48;1.25;;;;;;;6.77;100.00;100464.00;10584721;28;20383;-73
2022/11/24 05:23:32;;;;;;;5.22;1.67;;;;;;;6.73;100.00;100461.66;10565797;28;20092;-73
2022/11/24 05:28:32;;;;;;;5.93;1.48;;;;;;;6.85;100.00;100475.50;10584291;28;20031;-73
2022/11/24 05:33:32;;;;;;;2.13;1.50;;;;;;;6.88;100.00;100469.75;10565481;28;20043;-73
2022/11/24 05:38:34;;;;;;;22.88;2.38;;;;;;;6.95;100.00;100480.59;10582726;28;20072;-73
2022/11/24 05:43:34;;;;;;;9.05;2.45;;;;;;;6.95;100.00;100492.22;10581582;28;20037;-73
2022/11/24 05:48:34;;;;;;;8.30;2.80;;;;;;;7.03;100.00;100502.06;10564854;28;20043;-74
2022/11/24 05:53:35;;;;;;;4.35;2.38;;;;;;;7.03;100.00;100502.06;10582373;28;20039;-74
2022/11/24 05:58:35;;;;;;;7.85;2.35;;;;;;;7.07;100.00;100506.06;10582222;28;20100;-74
2022/11/24 06:03:36;;;;;;;4.55;1.83;;;;;;;7.02;100.00;100515.69;10583912;28;20032;-74
2022/11/24 06:08:36;;;;;;;2.38;2.13;;;;;;;6.96;100.00;100530.75;10583302;28;20377;-74
2022/11/24 06:13:36;;;;;;;5.22;2.88;;;;;;;7.03;100.00;100542.47;10582443;28;20039;-74
2022/11/24 06:18:37;;;;;;;5.18;2.55;;;;;;;7.14;100.00;100543.84;10582537;28;20035;-74
2022/11/24 06:23:38;;;;;;;3.53;1.88;;;;;;;7.17;100.00;100554.25;10581637;28;20610;-73
2022/11/24 06:28:38;;;;;;;6.40;3.40;;;;;;;7.17;100.00;100562.34;10580926;28;20168;-73
2022/11/24 06:33:39;;;;;;;8.93;4.18;;;;;;;7.17;100.00;100568.56;10563776;28;20106;-73
2022/11/24 06:38:39;;;;;;;4.15;3.33;;;;;;;7.20;100.00;100583.50;10582364;28;20028;-73
2022/11/24 06:43:39;;;;;;;4.65;4.10;;;;;;;7.28;100.00;100591.53;10581739;28;20516;-73
2022/11/24 06:48:40;;;;;;;11.90;3.72;;;;;;;7.36;100.00;100590.59;10581574;28;20122;-73
2022/11/24 06:53:40;;;;;;;8.48;5.05;;;;;;;7.43;100.00;100605.00;10581546;28;20089;-73
2022/11/24 06:58:42;;;;;;;7.35;4.75;;;;;;;7.45;100.00;100613.75;10582467;28;20084;-73
2022/11/24 07:03:42;;;;;;;10.75;4.65;;;;;;;7.44;100.00;100618.28;10581380;28;20522;-73
2022/11/24 07:08:43;;;;;;;8.65;3.55;;;;;;;7.51;100.00;100623.78;10586891;28;20130;-73
2022/11/24 07:13:43;;;;;;;13.43;3.85;;;;;;;7.57;100.00;100647.31;10589892;28;20116;-72
2022/11/24 07:18:44;;;;;;;16.35;4.57;;;;;;;7.60;100.00;100652.31;10570507;28;20455;-72
2022/11/24 07:23:48;;;;;;;5.78;3.08;;;;;;;7.50;100.00;100657.16;10589286;28;20046;-72
2022/11/24 07:28:49;;;;;;;10.23;3.40;;;;;;;7.35;100.00;100662.50;10570238;28;20103;-72
2022/11/24 07:33:51;;;;;;;12.38;2.95;;;;;;;7.21;100.00;100674.06;10570129;28;20030;-73
2022/11/24 07:38:51;;;;;;;13.05;3.65;;;;;;;7.12;100.00;100684.06;10587874;28;20059;-73
2022/11/24 07:43:52;;;;;;;7.43;2.55;;;;;;;7.19;100.00;100692.25;10588543;28;20062;-73
2022/11/24 07:48:52;;;;;;;7.78;3.05;;;;;;;7.34;100.00;100711.16;10571118;28;20066;-73
2022/11/24 07:53:52;;;;;;;12.10;3.00;;;;;;;7.63;100.00;100713.09;10587507;28;20039;-73
2022/11/24 07:58:53;;;;;;;4.35;2.60;;;;;;;7.58;100.00;100716.34;10587305;28;20028;-74
2022/11/24 08:03:53;;;;;;;7.95;3.45;;;;;;;7.50;100.00;100729.91;10570145;28;20039;-74
2022/11/24 08:08:54;;;;;;;15.55;4.18;;;;;;;7.82;100.00;100736.84;10586111;28;20487;-74
2022/11/24 08:13:54;;;;;;;14.45;4.70;;;;;;;8.10;100.00;100747.84;10585611;28;20507;-73
2022/11/24 08:18:55;;;;;;;32.22;3.92;;;;;;;8.20;100.00;100741.31;10585209;28;20399;-73
2022/11/24 08:23:55;;;;;;;17.88;3.53;;;;;;;8.90;100.00;100745.34;10586856;28;20046;-73
2022/11/24 08:28:56;;;;;;;10.32;3.90;;;;;;;9.32;100.00;100747.28;10586264;28;20093;-73
2022/11/24 08:33:57;;;;;;;16.90;3.70;;;;;;;9.18;100.00;100758.97;10568008;28;20041;-74
2022/11/24 08:38:58;;;;;;;8.23;3.10;;;;;;;8.85;100.00;100778.34;10585925;28;20031;-73
2022/11/24 08:43:58;;;;;;;12.48;4.43;;;;;;;8.97;100.00;100782.22;10586187;28;20027;-73
2022/11/24 08:48:59;;;;;;;11.50;2.92;;;;;;;9.18;100.00;100785.97;10566491;28;20032;-73
2022/11/24 08:53:59;;;;;;;20.38;4.43;;;;;;;9.96;100.00;100793.19;10585527;28;20043;-73
2022/11/24 08:59:00;;;;;;;15.80;4.32;;;;;;;10.24;100.00;100800.44;10584844;28;20039;-73
2022/11/24 09:04:01;;;;;;;18.13;3.60;;;;;;;10.62;100.00;100806.31;10565528;28;20028;-73
2022/11/24 09:09:01;;;;;;;12.40;3.25;;;;;;;10.83;100.00;100802.69;10584707;28;20060;-72
2022/11/24 09:14:02;;;;;;;21.60;3.35;;;;;;;10.95;100.00;100827.34;10584952;28;20042;-72
2022/11/24 09:19:03;;;;;;;4.05;2.47;;;;;;;10.92;100.00;100834.00;10583754;28;20123;-72
2022/11/24 09:24:06;;;;;;;15.77;4.43;;;;;;;10.60;100.00;100848.19;10585078;28;20100;-72
2022/11/24 09:29:06;;;;;;;9.63;3.30;;;;;;;10.91;100.00;100850.44;10565168;28;20452;-71
2022/11/24 09:34:09;;;;;;;15.80;3.80;;;;;;;11.35;100.00;100858.13;10583308;28;20039;-72
2022/11/24 09:39:10;;;;;;;8.32;4.05;;;;;;;10.64;100.00;100868.44;10565634;28;20071;-71
2022/11/24 09:44:31;;;;;;;13.23;4.65;;;;;;;10.07;100.00;100882.94;10582246;28;20028;-71
2022/11/24 09:49:49;;;;;;;7.65;3.22;;;;;;;9.78;100.00;100890.16;10569587;28;20119;-71
2022/11/24 09:54:56;;;;;;;14.88;4.50;;;;;;;9.82;100.00;100899.56;10581966;28;20036;-71
2022/11/24 09:59:58;;;;;;;16.85;4.18;;;;;;;10.43;100.00;100908.06;10547638;28;20447;-71
2022/11/24 10:04:59;;;;;;;13.63;4.35;;;;;;;10.64;100.00;100903.63;10563783;28;20379;-71
2022/11/24 10:10:07;;;;;;;22.08;3.90;;;;;;;10.35;100.00;100913.63;10584981;28;20051;-71
2022/11/24 10:15:43;;;;;;;10.27;5.03;;;;;;;11.22;100.00;100909.59;10564570;28;20038;-71
2022/11/24 10:21:02;;;;;;;13.35;3.35;;;;;;;11.55;100.00;100912.44;10580967;28;20031;-71
2022/11/24 10:26:07;;;;;;;4.63;3.35;;;;;;;11.65;100.00;100912.06;10582851;28;20032;-71
2022/11/24 10:31:36;;;;;;;12.65;3.08;;;;;;;12.03;100.00;100925.94;10563913;28;20030;-71
2022/11/24 10:36:50;;;;;;;7.70;3.22;;;;;;;12.00;100.00;100926.34;10581821;28;20114;-71
2022/11/24 10:41:55;;;;;;;9.90;3.20;;;;;;;12.08;100.00;100926.16;10582767;28;20031;-71
2022/11/24 10:46:56;;;;;;;12.82;3.28;;;;;;;12.29;100.00;100927.84;10590881;28;20027;-71
2022/11/24 10:52:13;;;;;;;19.33;4.70;;;;;;;11.88;100.00;100930.72;10588544;28;20470;-71
2022/11/24 10:57:33;;;;;;;5.97;3.45;;;;;;;11.85;100.00;100921.09;10589689;28;20028;-71
2022/11/24 11:02:35;;;;;;;15.07;5.38;;;;;;;11.89;100.00;100920.69;10590162;28;20035;-71
2022/11/24 11:07:36;;;;;;;8.75;4.53;;;;;;;12.05;100.00;100921.13;10588620;28;20050;-71
2022/11/24 11:12:36;;;;;;;16.88;4.68;;;;;;;12.29;100.00;100937.88;10590162;28;20039;-71
2022/11/24 11:17:37;;;;;;;9.75;4.80;;;;;;;12.33;100.00;100923.66;10586841;28;20421;-71
2022/11/24 11:22:37;;;;;;;16.08;5.22;;;;;;;12.52;100.00;100919.28;10570570;28;20023;-71
2022/11/24 11:27:38;;;;;;;15.30;4.50;;;;;;;12.63;100.00;100923.22;10569815;28;20039;-71
2022/11/24 11:32:56;;;;;;;7.72;4.32;;;;;;;12.67;100.00;100916.34;10570819;28;20379;-71
2022/11/24 11:38:01;;;;;;;13.45;5.32;;;;;;;12.57;100.00;100916.78;10568880;28;20035;-71
2022/11/24 11:43:05;;;;;;;9.52;3.85;;;;;;;12.65;100.00;100920.31;10586425;28;20506;-71
2022/11/24 11:48:17;;;;;;;13.50;4.80;;;;;;;12.78;100.00;100931.16;10569341;28;20034;-71
2022/11/24 11:53:26;;;;;;;5.70;3.35;;;;;;;12.74;100.00;100930.75;10585880;28;20024;-71
2022/11/24 11:58:46;;;;;;;5.03;3.30;;;;;;;12.81;100.00;100930.75;10588704;28;20031;-71
2022/11/24 12:04:06;;;;;;;7.40;4.10;;;;;;;12.84;100.00;100921.34;10586715;28;20076;-71
2022/11/24 12:09:44;;;;;;;17.85;4.43;;;;;;;12.79;100.00;100927.38;10564407;28;20411;-71
2022/11/24 12:15:29;;;;;;;10.32;3.40;;;;;;;12.95;100.00;100934.25;10587114;28;20035;-71
2022/11/24 12:20:56;;;;;;;15.25;4.88;;;;;;;13.04;100.00;100927.53;10584158;28;20093;-71
2022/11/24 12:26:23;;;;;;;12.30;4.43;;;;;;;12.95;100.00;100931.53;10569201;28;20031;-71
2022/11/24 12:31:42;;;;;;;14.80;4.90;;;;;;;13.12;100.00;100924.63;10584811;28;20401;-71
2022/11/24 12:37:01;;;;;;;11.27;3.75;;;;;;;13.30;100.00;100931.28;10585080;28;20115;-71
2022/11/24 12:42:08;;;;;;;15.45;4.07;;;;;;;12.96;100.00;100949.53;10585612;28;20027;-71
2022/11/24 12:47:18;;;;;;;11.10;3.88;;;;;;;12.63;100.00;100955.81;10585807;28;20032;-71
2022/11/24 12:52:21;;;;;;;7.18;4.03;;;;;;;12.40;100.00;100944.56;10583940;28;20100;-71
2022/11/24 12:57:32;;;;;;;26.17;5.57;;;;;;;12.03;100.00;100939.50;10565934;28;20449;-71
2022/11/24 13:03:10;;;;;;;18.30;4.20;;;;;;;11.76;100.00;100944.00;10583517;28;20039;-71
2022/11/24 13:08:10;;;;;;;8.15;3.05;;;;;;;11.51;100.00;100940.16;10584734;28;20083;-71
2022/11/24 13:13:11;;;;;;;7.45;4.90;;;;;;;11.44;100.00;100931.16;10583076;28;20364;-71
2022/11/24 13:19:40;;;;;;;21.42;4.82;;;;;;;11.27;100.00;100934.22;10583983;28;20031;-71
2022/11/24 13:24:43;;;;;;;5.88;3.45;;;;;;;11.09;100.00;100937.47;10582139;28;20036;-71
2022/11/24 13:36:09;;;;;;;13.20;5.05;;;;;;;10.98;100.00;100902.81;10494802;28;20104;-71
2022/11/24 13:53:41;;;;;;;11.60;4.82;;;;;;;10.62;100.00;100916.53;10405659;28;20089;-71
2022/11/24 13:58:49;;;;;;;16.58;4.47;;;;;;;10.87;100.00;100911.47;10489347;28;20052;-71
2022/11/24 14:04:11;;;;;;;17.13;4.63;;;;;;;11.01;100.00;100901.53;10517742;28;20052;-71
2022/11/24 14:09:14;;;;;;;22.85;4.55;;;;;;;10.96;100.00;100896.75;10582430;28;20071;-71
2022/11/24 14:14:19;;;;;;;12.57;3.90;;;;;;;10.80;100.00;100910.59;10564569;28;20031;-71
2022/11/24 14:19:20;;;;;;;12.85;4.03;;;;;;;10.78;100.00;100907.25;10563400;28;20079;-71
2022/11/24 14:24:24;;;;;;;12.95;5.15;;;;;;;10.65;100.00;100900.72;10581846;28;20036;-71
2022/11/24 14:29:27;;;;;;;8.52;3.50;;;;;;;10.63;100.00;100910.09;10563352;28;20028;-71
2022/11/24 14:34:28;;;;;;;8.32;4.43;;;;;;;10.33;100.00;100901.31;10581796;28;20122;-72
2022/11/24 14:39:29;;;;;;;12.95;4.00;;;;;;;10.17;100.00;100895.09;10581459;28;20088;-71
2022/11/24 14:44:53;;;;;;;19.08;4.57;;;;;;;9.97;100.00;100899.50;10563560;28;20023;-71
2022/11/24 14:49:53;;;;;;;13.73;5.13;;;;;;;9.89;100.00;100902.34;10563572;28;20479;-71
2022/11/24 14:54:55;;;;;;;11.57;3.65;;;;;;;9.84;100.00;100894.81;10563880;28;20027;-70
2022/11/24 15:00:04;;;;;;;10.65;3.15;;;;;;;9.74;100.00;100897.00;10563330;28;20477;-71
2022/11/24 15:05:05;;;;;;;13.38;3.78;;;;;;;9.63;100.00;100898.31;10583061;28;20036;-71
2022/11/24 15:10:34;;;;;;;9.02;4.43;;;;;;;9.55;100.00;100888.47;10563060;28;20056;-71
2022/11/24 15:15:35;;;;;;;13.38;3.20;;;;;;;9.44;100.00;100880.00;10580996;28;20032;-71
2022/11/24 15:20:41;;;;;;;8.68;4.07;;;;;;;9.37;100.00;100874.53;10562865;28;20032;-71
2022/11/24 15:25:42;;;;;;;15.15;6.45;;;;;;;9.32;100.00;100885.09;10580392;28;20401;-70
2022/11/24 15:30:42;;;;;;;12.70;5.03;;;;;;;9.16;100.00;100885.31;10586003;28;20031;-71
2022/11/24 15:35:43;;;;;;;15.98;5.32;;;;;;;9.15;100.00;100891.72;10570603;28;20088;-71
2022/11/24 15:40:45;;;;;;;26.33;5.43;;;;;;;9.07;100.00;100888.09;10586474;28;20024;-71
2022/11/24 15:45:45;;;;;;;19.50;5.40;;;;;;;9.05;100.00;100883.91;10586495;28;20360;-70
2022/11/24 15:50:46;;;;;;;26.70;4.30;;;;;;;8.98;100.00;100891.94;10587094;28;20039;-71
2022/11/24 15:55:47;;;;;;;15.02;5.25;;;;;;;8.90;100.00;100886.63;10552452;28;20053;-71
2022/11/24 16:00:49;;;;;;;19.48;5.80;;;;;;;8.96;100.00;100883.16;10587987;28;20038;-71
2022/11/24 16:05:51;;;;;;;20.02;6.22;;;;;;;8.81;100.00;100880.50;10587525;28;20070;-70
2022/11/24 16:10:51;;;;;;;10.23;4.20;;;;;;;8.87;100.00;100899.66;10586941;28;20035;-70
2022/11/24 16:15:52;;;;;;;27.25;7.53;;;;;;;8.80;100.00;100889.59;10586849;28;20478;-71
2022/11/24 16:20:52;;;;;;;22.42;7.35;;;;;;;8.79;100.00;100901.44;10553015;28;20119;-70
2022/11/24 16:25:53;;;;;;;15.10;5.95;;;;;;;8.82;100.00;100900.22;10568547;28;20387;-71
2022/11/24 16:30:53;;;;;;;11.60;5.30;;;;;;;8.87;100.00;100905.06;10586725;28;20031;-70
2022/11/24 16:35:54;;;;;;;30.00;8.55;;;;;;;8.97;100.00;100900.25;10567924;28;20542;-71
2022/11/24 16:40:57;;;;;;;10.38;3.85;;;;;;;8.97;100.00;100892.97;10585621;28;20031;-71
2022/11/24 16:46:19;;;;;;;20.92;4.78;;;;;;;9.00;100.00;100905.25;10585179;28;20028;-70
2022/11/24 16:51:20;;;;;;;15.25;5.28;;;;;;;9.01;100.00;100898.81;10567266;28;20034;-70
2022/11/24 16:56:21;;;;;;;13.98;4.75;;;;;;;8.96;100.00;100896.66;10586196;28;20036;-70
2022/11/24 17:01:21;;;;;;;17.20;4.88;;;;;;;8.96;100.00;100888.56;10584505;28;20043;-70
2022/11/24 17:06:22;;;;;;;16.55;5.78;;;;;;;8.92;100.00;100884.56;10567661;28;20079;-70
2022/11/24 17:11:23;;;;;;;10.48;3.55;;;;;;;8.97;100.00;100876.75;10585033;28;20036;-70
2022/11/24 17:16:24;;;;;;;19.58;5.70;;;;;;;9.01;100.00;100879.91;10566147;28;20028;-70
2022/11/24 17:21:25;;;;;;;21.75;5.32;;;;;;;9.02;100.00;100874.31;10582897;28;20367;-70
2022/11/24 17:26:25;;;;;;;9.20;4.85;;;;;;;8.91;100.00;100876.69;10567084;28;20035;-70
2022/11/24 17:31:31;;;;;;;14.30;4.60;;;;;;;8.83;100.00;100858.69;10584571;28;20106;-70
2022/11/24 17:36:32;;;;;;;13.38;4.82;;;;;;;8.92;100.00;100860.28;10565407;28;20031;-70
2022/11/24 17:41:32;;;;;;;12.88;4.10;;;;;;;8.94;100.00;100862.81;10584759;28;20430;-71
2022/11/24 17:46:33;;;;;;;20.80;4.78;;;;;;;9.03;100.00;100870.59;10582092;28;20059;-71
2022/11/24 17:51:33;;;;;;;15.05;5.57;;;;;;;8.96;100.00;100853.47;10564461;28;20371;-70
2022/11/24 17:56:34;;;;;;;28.52;7.05;;;;;;;8.82;100.00;100852.47;10581740;28;20376;-71
2022/11/24 18:01:34;;;;;;;13.90;5.07;;;;;;;8.76;100.00;100864.00;10583451;28;20145;-71
2022/11/24 18:06:36;;;;;;;23.20;5.07;;;;;;;8.64;100.00;100852.00;10564457;28;20130;-70
2022/11/24 18:11:37;;;;;;;16.33;5.90;;;;;;;8.59;100.00;100857.97;10581426;28;20028;-70
2022/11/24 18:16:37;;;;;;;20.38;6.47;;;;;;;8.58;100.00;100850.03;10582448;28;20064;-71
2022/11/24 18:21:38;;;;;;;22.02;6.03;;;;;;;8.54;100.00;100852.25;10581819;28;20484;-71
2022/11/24 18:26:39;;;;;;;31.75;5.80;;;;;;;8.59;100.00;100859.81;10563575;28;20106;-71
2022/11/24 18:31:40;;;;;;;15.02;3.80;;;;;;;8.67;100.00;100858.88;10580447;28;20024;-70
2022/11/24 18:36:40;;;;;;;21.38;6.68;;;;;;;8.75;100.00;100856.09;10580250;28;20031;-70
2022/11/24 18:41:40;;;;;;;17.48;5.03;;;;;;;8.75;100.00;100845.31;10573354;28;20035;-70
2022/11/24 18:46:41;;;;;;;13.15;5.85;;;;;;;8.73;100.00;100858.97;10582546;28;20046;-70
2022/11/24 18:51:42;;;;;;;10.80;4.63;;;;;;;8.64;100.00;100843.06;10563724;28;20050;-70
2022/11/24 18:56:45;;;;;;;13.02;4.28;;;;;;;8.62;100.00;100840.56;10581624;28;20043;-70
2022/11/24 19:01:46;;;;;;;11.60;4.53;;;;;;;8.53;100.00;100842.50;10582332;28;20463;-70
2022/11/24 19:06:46;;;;;;;16.58;5.15;;;;;;;8.52;100.00;100835.44;10589599;28;20059;-71
2022/11/24 19:11:46;;;;;;;14.88;4.70;;;;;;;8.41;100.00;100835.88;10589621;28;20417;-71
2022/11/24 19:16:47;;;;;;;20.00;5.22;;;;;;;8.37;100.00;100838.09;10590338;28;20118;-70
2022/11/24 19:21:47;;;;;;;16.25;4.38;;;;;;;8.41;100.00;100854.78;10587485;28;20517;-71
2022/11/24 19:26:50;;;;;;;13.07;5.53;;;;;;;8.43;100.00;100836.53;10571419;28;20039;-70
2022/11/24 19:31:52;;;;;;;17.02;4.75;;;;;;;8.46;100.00;100836.19;10587648;28;20024;-71
2022/11/24 19:36:52;;;;;;;5.32;3.50;;;;;;;8.43;100.00;100819.53;10570243;28;20034;-70
2022/11/24 19:41:53;;;;;;;12.77;4.90;;;;;;;8.46;100.00;100833.47;10569887;28;20035;-71
2022/11/24 19:46:53;;;;;;;10.73;4.50;;;;;;;8.55;100.00;100808.09;10587308;28;20035;-71
2022/11/24 19:51:53;;;;;;;14.50;4.60;;;;;;;8.64;100.00;100814.19;10587929;28;20481;-71
2022/11/24 19:56:55;;;;;;;10.75;4.22;;;;;;;8.67;100.00;100818.38;10569681;28;20120;-71
2022/11/24 20:01:56;;;;;;;11.57;4.22;;;;;;;8.74;100.00;100822.00;10569886;28;20057;-71
2022/11/24 20:06:59;;;;;;;24.50;3.45;;;;;;;8.85;100.00;100816.97;10587208;28;20131;-70
2022/11/24 20:11:59;;;;;;;16.67;4.32;;;;;;;8.85;100.00;100835.88;10586538;28;20035;-73
2022/11/24 20:16:59;;;;;;;15.50;6.35;;;;;;;8.92;100.00;100816.22;10586003;28;20040;-72
2022/11/24 20:22:00;;;;;;;12.50;4.95;;;;;;;8.92;100.00;100814.34;10585418;28;20094;-71
2022/11/24 20:27:01;;;;;;;19.52;5.50;;;;;;;8.97;100.00;100817.34;10586471;28;20122;-71
2022/11/24 20:32:02;;;;;;;17.90;5.25;;;;;;;9.05;100.00;100828.03;10586312;28;20117;-72
2022/11/24 20:37:02;;;;;;;12.02;5.50;;;;;;;9.07;100.00;100817.88;10566986;28;20567;-72
2022/11/24 20:42:03;;;;;;;17.35;4.60;;;;;;;9.08;100.00;100811.44;10586464;28;20111;-71
2022/11/24 20:47:05;;;;;;;10.88;5.75;;;;;;;9.13;100.00;100821.69;10586294;28;20047;-71
2022/11/24 20:52:06;;;;;;;6.47;4.25;;;;;;;9.17;100.00;100816.75;10585544;28;20031;-72
2022/11/24 20:57:06;;;;;;;13.18;5.28;;;;;;;9.15;100.00;100816.06;10585205;28;20042;-71
2022/11/24 21:02:08;;;;;;;18.20;5.25;;;;;;;9.22;100.00;100820.56;10585707;28;20043;-71
2022/11/24 21:07:12;;;;;;;14.35;4.03;;;;;;;9.29;100.00;100810.66;10566619;28;20379;-75
2022/11/24 21:12:12;;;;;;;22.98;5.75;;;;;;;9.42;100.00;100820.75;10584551;28;20404;-72
2022/11/24 21:17:15;;;;;;;8.65;3.45;;;;;;;9.53;100.00;100817.53;10584316;28;20040;-72
2022/11/24 21:22:16;;;;;;;16.83;4.60;;;;;;;9.67;100.00;100814.97;10584230;28;20463;-71
2022/11/24 21:27:16;;;;;;;13.32;4.53;;;;;;;9.76;100.00;100816.50;10584144;28;20118;-71
2022/11/24 21:32:17;;;;;;;21.80;3.88;;;;;;;9.85;100.00;100815.34;10565200;28;20037;-71
2022/11/24 21:37:17;;;;;;;8.15;2.85;;;;;;;9.98;100.00;100814.59;10549595;28;20120;-71
2022/11/24 21:42:18;;;;;;;11.23;4.85;;;;;;;10.03;100.00;100814.88;10565174;28;20414;-72
2022/11/24 21:47:18;;;;;;;10.70;4.22;;;;;;;10.13;100.00;100819.94;10583470;28;20118;-72
2022/11/24 21:52:18;;;;;;;11.25;5.68;;;;;;;10.16;100.00;100811.44;10582710;28;20047;-71
2022/11/24 21:57:19;;;;;;;13.10;5.05;;;;;;;10.17;100.00;100813.91;10564824;28;20475;-72
2022/11/24 22:02:19;;;;;;;14.48;4.80;;;;;;;10.20;100.00;100818.13;10582966;28;20047;-72
2022/11/24 22:07:20;;;;;;;18.13;4.25;;;;;;;10.14;100.00;100808.06;10582698;28;20047;-72
2022/11/24 22:12:20;;;;;;;13.77;4.43;;;;;;;9.95;100.00;100805.00;10564527;28;20039;-72
2022/11/24 22:17:21;;;;;;;14.25;4.95;;;;;;;9.79;100.00;100810.69;10582007;28;20472;-71
2022/11/24 22:22:22;;;;;;;12.73;4.93;;;;;;;9.67;100.00;100796.88;10566176;28;20118;-72
2022/11/24 22:27:22;;;;;;;23.00;7.20;;;;;;;9.67;100.00;100804.16;10563667;28;20039;-72
2022/11/24 22:32:23;;;;;;;17.85;5.18;;;;;;;9.76;100.00;100794.88;10563987;28;20378;-72
2022/11/24 22:37:23;;;;;;;12.82;4.10;;;;;;;9.71;100.00;100802.75;10583102;28;20118;-71
2022/11/24 22:42:24;;;;;;;21.63;3.80;;;;;;;9.51;100.00;100802.56;10556308;28;20075;-71
2022/11/24 22:47:24;;;;;;;17.95;5.30;;;;;;;9.41;100.00;100793.91;10571876;28;20034;-73
2022/11/24 22:52:25;;;;;;;26.33;6.60;;;;;;;9.30;100.00;100798.81;10591055;28;20059;-71
2022/11/24 22:57:25;;;;;;;13.73;5.38;;;;;;;9.19;100.00;100803.84;10589523;28;20455;-71
2022/11/24 23:02:26;;;;;;;13.80;7.18;;;;;;;9.19;100.00;100793.06;10590021;28;20110;-71
2022/11/24 23:07:26;;;;;;;12.90;5.28;;;;;;;9.16;100.00;100801.56;10572269;28;20108;-72
2022/11/24 23:12:27;;;;;;;22.80;5.97;;;;;;;9.10;100.00;100783.41;10590229;28;20037;-72
2022/11/24 23:17:27;;;;;;;14.57;4.53;;;;;;;9.13;100.00;100789.28;10589981;28;20039;-73